Nearby METAR Reports

 

KDPA - Chicago/Dupage, Illinois, USA
Distance from station: ESE 9mi, 15km
Updated: Sat, 20-Jan-2018 3:52pm CST
Clear
Clear
 Wind from SSW
Wind: SSW 6 mph , 9 km/h
Temperature: 43°F , 6°C
Wind Chill: 39°F , 4°C
Dew Point: 36°F , 2°C
Humidity: 76%
Barometer: 29.93 inHg , 1013.5 hPa
Clouds: Clear
Visibility: 7 miles , 11 km
2018/01/20 21:52 KDPA 202152Z 21005KT 7SM CLR 06/02 A2993 RMK AO2 SLP142 T00610022
KARR - Chicago/Aurora, Illinois, USA
Distance from station: SSW 14mi, 22km
Updated: Sat, 20-Jan-2018 3:52pm CST
Clear
Clear
 Wind from SW
Wind: SW 3 mph , 6 km/h
Temperature: 45°F , 7°C
Dew Point: 36°F , 2°C
Humidity: 71%
Barometer: 29.94 inHg , 1013.9 hPa
Clouds: Clear
Visibility: 10 miles , 16 km
2018/01/20 21:52 KARR 202152Z 22003KT 10SM CLR 07/02 A2994 RMK AO2 SLP145 T00720022
 
KDKB - De Kalb, Illinois, USA
Distance from station: W 14mi, 23km
Updated: Sat, 20-Jan-2018 4:35pm CST
Clear
Clear
 Wind from SSE
Wind: SSE 5 mph , 7 km/h
Temperature: 41°F , 5°C
Wind Chill: 38°F , 3°C
Dew Point: 36°F , 2°C
Humidity: 81%
Barometer: 29.95 inHg , 1014.2 hPa
Clouds: Clear
Visibility: 10 miles , 16 km
2018/01/20 22:35 KDKB 202235Z AUTO 16004KT 10SM CLR 05/02 A2995 RMK AO2 T00450024
KORD - Chicago O'hare, Illinois, USA
Distance from station: E 25mi, 41km
Updated: Sat, 20-Jan-2018 4:51pm CST
Partly cloudy
Partly cloudy
 Wind from SW
Wind: SW 5 mph , 7 km/h
Temperature: 43°F , 6°C
Wind Chill: 40°F , 4°C
Dew Point: 34°F , 1°C
Humidity: 71%
Barometer: 29.95 inHg , 1014.2 hPa
Clouds: Partly cloudy
Visibility: 10 miles , 16 km
Cloud details: Few Clouds 2000 ft
Partly cloudy 25000 ft
2018/01/20 22:51 KORD 202251Z 23004KT 10SM FEW020 SCT250 06/01 A2995 RMK AO2 SLP147 T00560006
 
KPWK - Palwaukee, Illinois, USA
Distance from station: ENE 29mi, 47km
Updated: Sat, 20-Jan-2018 3:52pm CST
Clear
Clear
 Wind from WSW
Wind: WSW 8 mph , 13 km/h
Temperature: 45°F , 7°C
Wind Chill: 41°F , 5°C
Dew Point: 32°F , 0°C
Humidity: 61%
Barometer: 29.94 inHg , 1013.9 hPa
Clouds: Clear
Visibility: 10 miles , 16 km
2018/01/20 21:52 KPWK 202152Z 24007KT 10SM CLR 07/00 A2994 RMK AO2 SLP144 T00720000
KLOT - Romeoville/Chi, Illinois, USA
Distance from station: SE 30mi, 48km
Updated: Sat, 20-Jan-2018 4:35pm CST
Mostly cloudy
Mostly cloudy
 Wind from SSW
Wind: SSW 8 mph , 13 km/h
Temperature: 41°F , 5°C
Wind Chill: 36°F , 2°C
Dew Point: 37°F , 3°C
Humidity: 87%
Barometer: 29.97 inHg , 1014.9 hPa
Clouds: Mostly cloudy
Visibility: 10 miles , 16 km
Cloud details: Mostly cloudy 1800 ft
2018/01/20 22:35 KLOT 202235Z AUTO 20007KT 10SM BKN018 05/03 A2997 RMK AO2 T00510027
 
KJOT - Joliet, Illinois, USA
Distance from station: SSE 33mi, 53km
Updated: Sat, 20-Jan-2018 4:35pm CST
Overcast
Overcast
 Wind from SSW
Wind: SSW 5 mph , 7 km/h
Temperature: 45°F , 7°C
Wind Chill: 42°F , 6°C
Dew Point: 39°F , 4°C
Humidity: 81%
Barometer: 29.97 inHg , 1014.9 hPa
Clouds: Overcast
Visibility: 10 miles , 16 km
Cloud details: Overcast 1800 ft
2018/01/20 22:35 KJOT 202235Z AUTO 20004KT 10SM OVC018 07/04 A2997 RMK AO2 T00670038
KRPJ - Rochelle/Koritz, Illinois, USA
Distance from station: W 34mi, 55km
Updated: Sat, 20-Jan-2018 4:35pm CST
Partly cloudy
Partly cloudy
 Wind from SSW
Wind: SSW 8 mph , 13 km/h
Temperature: 41°F , 5°C
Wind Chill: 36°F , 2°C
Dew Point: 37°F , 3°C
Humidity: 87%
Barometer: 29.94 inHg , 1013.9 hPa
Clouds: Partly cloudy
Visibility: 10 miles , 16 km
Cloud details: Partly cloudy 2400 ft
2018/01/20 22:35 KRPJ 202235Z AUTO 20007KT 10SM SCT024 05/03 A2994 RMK AO2 T00460029
 
KC09 - Morris-Washburn, Illinois, USA
Distance from station: S 36mi, 59km
Updated: Sat, 20-Jan-2018 4:35pm CST
Overcast
Overcast
 Wind from SSW
Wind: SSW 8 mph , 13 km/h
Temperature: 43°F , 6°C
Wind Chill: 38°F , 3°C
Dew Point: 37°F , 3°C
Humidity: 81%
Barometer: 29.96 inHg , 1014.6 hPa
Clouds: Overcast
Visibility: 10 miles , 16 km
Cloud details: Overcast 2000 ft
2018/01/20 22:35 KC09 202235Z AUTO 20007KT 10SM OVC020 06/03 A2996 RMK AO2 T00550030
KMDW - Chicago, Illinois, USA
Distance from station: ESE 37mi, 59km
Updated: Sat, 20-Jan-2018 3:53pm CST
Mostly cloudy
Mostly cloudy
 Wind from SW
Wind: SW 8 mph , 13 km/h
Temperature: 46°F , 8°C
Wind Chill: 42°F , 6°C
Dew Point: 36°F , 2°C
Humidity: 66%
Barometer: 29.95 inHg , 1014.2 hPa
Clouds: Mostly cloudy
Visibility: 10 miles , 16 km
Cloud details: Few Clouds 2000 ft
Mostly cloudy 25000 ft
2018/01/20 21:53 KMDW 202153Z 22007KT 10SM FEW020 BKN250 08/02 A2995 RMK AO2 SLP147 T00780017
 
KRFD - Rockford, Illinois, USA
Distance from station: WNW 38mi, 62km
Updated: Sat, 20-Jan-2018 3:54pm CST
Partly cloudy
Partly cloudy
 Wind from S
Wind: S 5 mph , 7 km/h
Temperature: 45°F , 7°C
Wind Chill: 42°F , 6°C
Dew Point: 34°F , 1°C
Humidity: 66%
Barometer: 29.94 inHg , 1013.9 hPa
Clouds: Partly cloudy
Visibility: 10 miles , 16 km
Cloud details: Partly cloudy 25000 ft
2018/01/20 21:54 KRFD 202154Z 19004KT 10SM SCT250 07/01 A2994 RMK AO2 SLP144 T00670006
KUGN - Waukegan, Illinois, USA
Distance from station: NE 42mi, 68km
Updated: Sat, 20-Jan-2018 3:55pm CST
Clear
Clear
 Wind from varies
Wind: varies 6 mph , 9 km/h
Temperature: 45°F , 7°C
Wind Chill: 42°F , 6°C
Dew Point: 30°F , -1°C
Humidity: 57%
Barometer: 29.93 inHg , 1013.5 hPa
Clouds: Clear
Visibility: 10 miles , 16 km
2018/01/20 21:55 KUGN 202155Z VRB05KT 10SM CLR 07/M01 A2993 RMK AO2 SLP142 T00721006
 
KBUU - Burlington, Wisconsin, USA
Distance from station: N 50mi, 81km
Updated: Sat, 20-Jan-2018 4:35pm CST
Clear
Clear
 Wind from calm
Wind: Calm
Temperature: 41°F , 5°C
Dew Point: 30°F , -1°C
Humidity: 66%
Barometer: 29.94 inHg , 1013.9 hPa
Clouds: Clear
Visibility: 10 miles , 16 km
2018/01/20 22:35 KBUU 202235Z AUTO 00000KT 10SM CLR 05/M01 A2994 RMK AO2 T00461007